sensor_id;sensor_type;location;lat;lon;timestamp;P1;durP1;ratioP1;P2;durP2;ratioP2
75932;SDS011;64803;52.356;5.310;2023-03-30T00:00:07;8.38;;;2.80;;
75932;SDS011;64803;52.356;5.310;2023-03-30T00:02:45;8.60;;;2.03;;
75932;SDS011;64803;52.356;5.310;2023-03-30T00:05:14;6.78;;;2.42;;
75932;SDS011;64803;52.356;5.310;2023-03-30T00:07:42;9.18;;;2.60;;
75932;SDS011;64803;52.356;5.310;2023-03-30T00:10:10;8.48;;;2.70;;
75932;SDS011;64803;52.356;5.310;2023-03-30T00:12:37;7.63;;;2.70;;
75932;SDS011;64803;52.356;5.310;2023-03-30T00:15:06;7.50;;;2.75;;
75932;SDS011;64803;52.356;5.310;2023-03-30T00:17:34;9.60;;;2.90;;
75932;SDS011;64803;52.356;5.310;2023-03-30T00:20:01;9.13;;;2.95;;
75932;SDS011;64803;52.356;5.310;2023-03-30T00:22:29;9.88;;;2.22;;
75932;SDS011;64803;52.356;5.310;2023-03-30T00:24:55;6.43;;;2.08;;
75932;SDS011;64803;52.356;5.310;2023-03-30T00:27:21;9.02;;;2.47;;
75932;SDS011;64803;52.356;5.310;2023-03-30T00:29:47;7.03;;;2.10;;
75932;SDS011;64803;52.356;5.310;2023-03-30T00:32:13;5.90;;;2.20;;
75932;SDS011;64803;52.356;5.310;2023-03-30T00:34:39;7.65;;;1.92;;
75932;SDS011;64803;52.356;5.310;2023-03-30T00:37:06;6.13;;;1.92;;
75932;SDS011;64803;52.356;5.310;2023-03-30T00:39:32;8.25;;;2.65;;
75932;SDS011;64803;52.356;5.310;2023-03-30T00:41:58;11.52;;;2.33;;
75932;SDS011;64803;52.356;5.310;2023-03-30T00:47:27;5.63;;;1.63;;
75932;SDS011;64803;52.356;5.310;2023-03-30T00:49:54;7.25;;;2.03;;
75932;SDS011;64803;52.356;5.310;2023-03-30T00:52:21;8.05;;;2.35;;
75932;SDS011;64803;52.356;5.310;2023-03-30T00:54:53;8.88;;;2.20;;
75932;SDS011;64803;52.356;5.310;2023-03-30T00:57:21;11.02;;;2.10;;
75932;SDS011;64803;52.356;5.310;2023-03-30T00:59:50;7.63;;;2.10;;
75932;SDS011;64803;52.356;5.310;2023-03-30T01:02:18;7.28;;;1.90;;
75932;SDS011;64803;52.356;5.310;2023-03-30T01:04:46;5.60;;;1.73;;
75932;SDS011;64803;52.356;5.310;2023-03-30T01:07:16;7.05;;;2.30;;
75932;SDS011;64803;52.356;5.310;2023-03-30T01:09:43;7.68;;;2.35;;
75932;SDS011;64803;52.356;5.310;2023-03-30T01:12:09;6.00;;;2.00;;
75932;SDS011;64803;52.356;5.310;2023-03-30T01:14:35;10.40;;;2.10;;
75932;SDS011;64803;52.356;5.310;2023-03-30T01:28:20;5.22;;;1.70;;
75932;SDS011;64803;52.356;5.310;2023-03-30T01:31:28;6.13;;;1.55;;
75932;SDS011;64803;52.356;5.310;2023-03-30T01:44:53;9.10;;;1.83;;
75932;SDS011;64803;52.356;5.310;2023-03-30T01:50:10;10.77;;;2.08;;
75932;SDS011;64803;52.356;5.310;2023-03-30T01:52:57;6.80;;;1.92;;
75932;SDS011;64803;52.356;5.310;2023-03-30T02:01:19;6.63;;;2.13;;
75932;SDS011;64803;52.356;5.310;2023-03-30T02:03:48;7.75;;;2.03;;
75932;SDS011;64803;52.356;5.310;2023-03-30T02:06:19;7.65;;;1.50;;
75932;SDS011;64803;52.356;5.310;2023-03-30T02:08:52;7.80;;;1.75;;
75932;SDS011;64803;52.356;5.310;2023-03-30T02:11:21;7.22;;;1.65;;
75932;SDS011;64803;52.356;5.310;2023-03-30T02:13:51;7.05;;;1.73;;
75932;SDS011;64803;52.356;5.310;2023-03-30T02:16:21;6.28;;;1.80;;
75932;SDS011;64803;52.356;5.310;2023-03-30T02:18:54;7.45;;;1.98;;
75932;SDS011;64803;52.356;5.310;2023-03-30T02:23:48;9.63;;;1.90;;
75932;SDS011;64803;52.356;5.310;2023-03-30T02:26:18;4.85;;;1.50;;
75932;SDS011;64803;52.356;5.310;2023-03-30T02:28:44;9.52;;;1.50;;
75932;SDS011;64803;52.356;5.310;2023-03-30T02:31:11;9.68;;;1.77;;
75932;SDS011;64803;52.356;5.310;2023-03-30T02:33:43;7.30;;;1.70;;
75932;SDS011;64803;52.356;5.310;2023-03-30T02:47:08;9.65;;;1.90;;
75932;SDS011;64803;52.356;5.310;2023-03-30T02:52:47;4.25;;;1.40;;
75932;SDS011;64803;52.356;5.310;2023-03-30T03:01:22;6.00;;;1.70;;
75932;SDS011;64803;52.356;5.310;2023-03-30T03:03:59;7.05;;;1.80;;
75932;SDS011;64803;52.356;5.310;2023-03-30T03:06:34;11.95;;;1.85;;
75932;SDS011;64803;52.356;5.310;2023-03-30T03:11:31;6.50;;;1.70;;
75932;SDS011;64803;52.356;5.310;2023-03-30T03:13:58;6.10;;;1.52;;
75932;SDS011;64803;52.356;5.310;2023-03-30T03:16:26;9.32;;;2.03;;
75932;SDS011;64803;52.356;5.310;2023-03-30T03:19:13;10.27;;;2.25;;
75932;SDS011;64803;52.356;5.310;2023-03-30T03:21:41;8.23;;;2.03;;
75932;SDS011;64803;52.356;5.310;2023-03-30T03:24:07;6.10;;;1.92;;
75932;SDS011;64803;52.356;5.310;2023-03-30T03:29:19;5.40;;;1.58;;
75932;SDS011;64803;52.356;5.310;2023-03-30T03:31:45;7.20;;;2.00;;
75932;SDS011;64803;52.356;5.310;2023-03-30T03:34:12;5.82;;;1.85;;
75932;SDS011;64803;52.356;5.310;2023-03-30T03:36:57;9.90;;;2.35;;
75932;SDS011;64803;52.356;5.310;2023-03-30T03:39:26;7.97;;;2.33;;
75932;SDS011;64803;52.356;5.310;2023-03-30T03:41:59;9.80;;;2.15;;
75932;SDS011;64803;52.356;5.310;2023-03-30T03:44:25;10.77;;;2.13;;
75932;SDS011;64803;52.356;5.310;2023-03-30T03:46:51;8.75;;;2.42;;
75932;SDS011;64803;52.356;5.310;2023-03-30T03:49:17;8.43;;;1.83;;
75932;SDS011;64803;52.356;5.310;2023-03-30T03:51:43;7.43;;;2.00;;
75932;SDS011;64803;52.356;5.310;2023-03-30T03:54:10;7.50;;;2.00;;
75932;SDS011;64803;52.356;5.310;2023-03-30T03:59:03;5.28;;;1.52;;
75932;SDS011;64803;52.356;5.310;2023-03-30T04:01:30;5.10;;;2.08;;
75932;SDS011;64803;52.356;5.310;2023-03-30T04:03:56;8.30;;;1.60;;
75932;SDS011;64803;52.356;5.310;2023-03-30T04:06:22;10.10;;;2.35;;
75932;SDS011;64803;52.356;5.310;2023-03-30T04:08:48;6.10;;;1.65;;
75932;SDS011;64803;52.356;5.310;2023-03-30T04:11:37;7.15;;;1.83;;
75932;SDS011;64803;52.356;5.310;2023-03-30T04:14:14;6.78;;;1.80;;
75932;SDS011;64803;52.356;5.310;2023-03-30T04:17:03;7.20;;;1.90;;
75932;SDS011;64803;52.356;5.310;2023-03-30T04:19:38;10.52;;;1.55;;
75932;SDS011;64803;52.356;5.310;2023-03-30T04:22:21;10.85;;;2.10;;
75932;SDS011;64803;52.356;5.310;2023-03-30T04:25:20;10.73;;;1.80;;
75932;SDS011;64803;52.356;5.310;2023-03-30T04:28:06;10.65;;;1.90;;
75932;SDS011;64803;52.356;5.310;2023-03-30T04:30:56;6.05;;;1.75;;
75932;SDS011;64803;52.356;5.310;2023-03-30T04:33:43;9.02;;;1.65;;
75932;SDS011;64803;52.356;5.310;2023-03-30T04:36:30;6.28;;;1.13;;
75932;SDS011;64803;52.356;5.310;2023-03-30T04:39:17;4.65;;;1.60;;
75932;SDS011;64803;52.356;5.310;2023-03-30T04:41:55;8.13;;;2.22;;
75932;SDS011;64803;52.356;5.310;2023-03-30T04:44:37;8.18;;;2.03;;
75932;SDS011;64803;52.356;5.310;2023-03-30T04:47:28;9.80;;;1.77;;
75932;SDS011;64803;52.356;5.310;2023-03-30T04:50:26;8.38;;;1.67;;
75932;SDS011;64803;52.356;5.310;2023-03-30T04:53:13;10.38;;;2.00;;
75932;SDS011;64803;52.356;5.310;2023-03-30T04:55:58;11.73;;;2.45;;
75932;SDS011;64803;52.356;5.310;2023-03-30T04:58:39;10.98;;;1.50;;
75932;SDS011;64803;52.356;5.310;2023-03-30T05:01:32;7.35;;;1.92;;
75932;SDS011;64803;52.356;5.310;2023-03-30T05:04:19;9.50;;;2.30;;
75932;SDS011;64803;52.356;5.310;2023-03-30T05:06:51;12.55;;;2.40;;
75932;SDS011;64803;52.356;5.310;2023-03-30T05:09:26;8.50;;;1.98;;
75932;SDS011;64803;52.356;5.310;2023-03-30T05:12:15;9.35;;;1.60;;
75932;SDS011;64803;52.356;5.310;2023-03-30T05:15:02;10.02;;;2.53;;
75932;SDS011;64803;52.356;5.310;2023-03-30T05:17:43;12.80;;;2.83;;
75932;SDS011;64803;52.356;5.310;2023-03-30T05:20:33;15.48;;;2.92;;
75932;SDS011;64803;52.356;5.310;2023-03-30T05:23:08;14.88;;;2.85;;
75932;SDS011;64803;52.356;5.310;2023-03-30T05:25:53;10.63;;;2.70;;
75932;SDS011;64803;52.356;5.310;2023-03-30T05:28:41;15.07;;;2.78;;
75932;SDS011;64803;52.356;5.310;2023-03-30T05:31:36;9.43;;;1.90;;
75932;SDS011;64803;52.356;5.310;2023-03-30T05:34:02;17.80;;;2.75;;
75932;SDS011;64803;52.356;5.310;2023-03-30T05:36:48;17.38;;;3.20;;
75932;SDS011;64803;52.356;5.310;2023-03-30T05:39:33;14.02;;;2.45;;
75932;SDS011;64803;52.356;5.310;2023-03-30T05:41:59;16.80;;;2.65;;
75932;SDS011;64803;52.356;5.310;2023-03-30T05:44:35;10.20;;;2.05;;
75932;SDS011;64803;52.356;5.310;2023-03-30T05:47:20;13.27;;;2.58;;
75932;SDS011;64803;52.356;5.310;2023-03-30T05:50:09;14.82;;;2.58;;
75932;SDS011;64803;52.356;5.310;2023-03-30T05:52:50;14.00;;;2.58;;
75932;SDS011;64803;52.356;5.310;2023-03-30T05:55:52;14.45;;;2.55;;
75932;SDS011;64803;52.356;5.310;2023-03-30T05:58:37;20.45;;;3.40;;
75932;SDS011;64803;52.356;5.310;2023-03-30T06:01:18;20.02;;;3.60;;
75932;SDS011;64803;52.356;5.310;2023-03-30T06:03:46;19.52;;;3.35;;
75932;SDS011;64803;52.356;5.310;2023-03-30T06:06:12;17.00;;;3.05;;
75932;SDS011;64803;52.356;5.310;2023-03-30T06:08:40;22.08;;;3.03;;
75932;SDS011;64803;52.356;5.310;2023-03-30T06:11:08;19.33;;;3.20;;
75932;SDS011;64803;52.356;5.310;2023-03-30T06:13:46;15.23;;;2.20;;
75932;SDS011;64803;52.356;5.310;2023-03-30T06:16:12;17.52;;;2.95;;
75932;SDS011;64803;52.356;5.310;2023-03-30T06:18:41;16.02;;;2.95;;
75932;SDS011;64803;52.356;5.310;2023-03-30T06:21:11;19.95;;;3.22;;
75932;SDS011;64803;52.356;5.310;2023-03-30T06:23:56;18.95;;;2.85;;
75932;SDS011;64803;52.356;5.310;2023-03-30T06:26:25;14.40;;;2.10;;
75932;SDS011;64803;52.356;5.310;2023-03-30T06:28:52;22.17;;;3.03;;
75932;SDS011;64803;52.356;5.310;2023-03-30T06:31:19;18.02;;;2.92;;
75932;SDS011;64803;52.356;5.310;2023-03-30T06:33:50;16.92;;;2.10;;
75932;SDS011;64803;52.356;5.310;2023-03-30T06:36:16;20.52;;;1.95;;
75932;SDS011;64803;52.356;5.310;2023-03-30T06:38:44;9.48;;;2.08;;
75932;SDS011;64803;52.356;5.310;2023-03-30T06:41:11;18.92;;;2.92;;
75932;SDS011;64803;52.356;5.310;2023-03-30T06:43:40;25.38;;;2.58;;
75932;SDS011;64803;52.356;5.310;2023-03-30T06:46:13;23.98;;;3.08;;
75932;SDS011;64803;52.356;5.310;2023-03-30T06:48:43;22.33;;;3.35;;
75932;SDS011;64803;52.356;5.310;2023-03-30T06:51:28;19.42;;;3.33;;
75932;SDS011;64803;52.356;5.310;2023-03-30T06:53:56;23.88;;;3.42;;
75932;SDS011;64803;52.356;5.310;2023-03-30T06:56:22;22.58;;;3.60;;
75932;SDS011;64803;52.356;5.310;2023-03-30T06:59:06;16.92;;;3.33;;
75932;SDS011;64803;52.356;5.310;2023-03-30T07:01:40;16.52;;;2.67;;
75932;SDS011;64803;52.356;5.310;2023-03-30T07:04:26;18.60;;;2.90;;
75932;SDS011;64803;52.356;5.310;2023-03-30T07:07:12;28.45;;;3.92;;
75932;SDS011;64803;52.356;5.310;2023-03-30T07:09:39;18.70;;;3.17;;
75932;SDS011;64803;52.356;5.310;2023-03-30T07:12:06;22.70;;;3.88;;
75932;SDS011;64803;52.356;5.310;2023-03-30T07:14:34;19.10;;;3.10;;
75932;SDS011;64803;52.356;5.310;2023-03-30T07:17:01;27.33;;;4.15;;
75932;SDS011;64803;52.356;5.310;2023-03-30T07:19:27;19.77;;;2.75;;
75932;SDS011;64803;52.356;5.310;2023-03-30T07:21:53;22.55;;;3.72;;
75932;SDS011;64803;52.356;5.310;2023-03-30T07:24:23;22.17;;;3.58;;
75932;SDS011;64803;52.356;5.310;2023-03-30T07:26:49;15.02;;;2.63;;
75932;SDS011;64803;52.356;5.310;2023-03-30T07:29:16;19.65;;;3.42;;
75932;SDS011;64803;52.356;5.310;2023-03-30T07:31:45;20.70;;;3.55;;
75932;SDS011;64803;52.356;5.310;2023-03-30T07:34:13;25.90;;;3.35;;
75932;SDS011;64803;52.356;5.310;2023-03-30T07:36:48;27.42;;;4.00;;
75932;SDS011;64803;52.356;5.310;2023-03-30T07:39:14;22.27;;;3.50;;
75932;SDS011;64803;52.356;5.310;2023-03-30T07:41:44;22.65;;;4.20;;
75932;SDS011;64803;52.356;5.310;2023-03-30T07:44:11;19.38;;;3.28;;
75932;SDS011;64803;52.356;5.310;2023-03-30T07:46:38;22.65;;;3.72;;
75932;SDS011;64803;52.356;5.310;2023-03-30T07:49:05;18.70;;;2.67;;
75932;SDS011;64803;52.356;5.310;2023-03-30T07:51:31;24.60;;;4.43;;
75932;SDS011;64803;52.356;5.310;2023-03-30T07:54:07;31.95;;;3.92;;
75932;SDS011;64803;52.356;5.310;2023-03-30T07:56:58;20.77;;;3.78;;
75932;SDS011;64803;52.356;5.310;2023-03-30T07:59:24;11.95;;;1.65;;
75932;SDS011;64803;52.356;5.310;2023-03-30T08:01:52;17.67;;;2.55;;
75932;SDS011;64803;52.356;5.310;2023-03-30T08:04:45;24.90;;;3.05;;
75932;SDS011;64803;52.356;5.310;2023-03-30T08:07:14;24.98;;;3.10;;
75932;SDS011;64803;52.356;5.310;2023-03-30T08:09:41;25.83;;;3.58;;
75932;SDS011;64803;52.356;5.310;2023-03-30T08:12:10;20.80;;;3.03;;
75932;SDS011;64803;52.356;5.310;2023-03-30T08:14:37;25.65;;;3.47;;
75932;SDS011;64803;52.356;5.310;2023-03-30T08:17:03;24.65;;;3.05;;
75932;SDS011;64803;52.356;5.310;2023-03-30T08:19:29;25.67;;;3.40;;
75932;SDS011;64803;52.356;5.310;2023-03-30T08:21:55;16.83;;;3.25;;
75932;SDS011;64803;52.356;5.310;2023-03-30T08:24:21;20.67;;;3.65;;
75932;SDS011;64803;52.356;5.310;2023-03-30T08:26:47;21.25;;;2.95;;
75932;SDS011;64803;52.356;5.310;2023-03-30T08:29:13;20.20;;;2.28;;
75932;SDS011;64803;52.356;5.310;2023-03-30T08:31:39;20.75;;;3.25;;
75932;SDS011;64803;52.356;5.310;2023-03-30T08:34:06;17.77;;;2.67;;
75932;SDS011;64803;52.356;5.310;2023-03-30T08:36:33;29.30;;;4.15;;
75932;SDS011;64803;52.356;5.310;2023-03-30T08:38:59;21.98;;;3.17;;
75932;SDS011;64803;52.356;5.310;2023-03-30T08:44:00;21.00;;;3.05;;
75932;SDS011;64803;52.356;5.310;2023-03-30T08:49:00;25.13;;;4.45;;
75932;SDS011;64803;52.356;5.310;2023-03-30T08:51:31;20.10;;;3.85;;
75932;SDS011;64803;52.356;5.310;2023-03-30T08:53:59;28.17;;;3.63;;
75932;SDS011;64803;52.356;5.310;2023-03-30T08:56:33;30.00;;;4.90;;
75932;SDS011;64803;52.356;5.310;2023-03-30T08:59:48;24.50;;;3.20;;
75932;SDS011;64803;52.356;5.310;2023-03-30T09:10:36;28.42;;;4.07;;
75932;SDS011;64803;52.356;5.310;2023-03-30T09:13:08;24.52;;;3.85;;
75932;SDS011;64803;52.356;5.310;2023-03-30T09:15:49;18.70;;;3.13;;
75932;SDS011;64803;52.356;5.310;2023-03-30T09:18:23;23.60;;;3.63;;
75932;SDS011;64803;52.356;5.310;2023-03-30T09:20:55;19.10;;;3.83;;
75932;SDS011;64803;52.356;5.310;2023-03-30T09:23:27;22.15;;;3.08;;
75932;SDS011;64803;52.356;5.310;2023-03-30T09:34:03;14.82;;;3.03;;
75932;SDS011;64803;52.356;5.310;2023-03-30T09:36:34;17.33;;;2.53;;
75932;SDS011;64803;52.356;5.310;2023-03-30T09:39:25;20.23;;;2.53;;
75932;SDS011;64803;52.356;5.310;2023-03-30T09:44:43;23.85;;;3.63;;
75932;SDS011;64803;52.356;5.310;2023-03-30T09:47:23;11.80;;;2.30;;
75932;SDS011;64803;52.356;5.310;2023-03-30T09:49:59;16.95;;;3.03;;
75932;SDS011;64803;52.356;5.310;2023-03-30T09:52:30;21.52;;;3.97;;
75932;SDS011;64803;52.356;5.310;2023-03-30T09:57:46;20.42;;;3.40;;
75932;SDS011;64803;52.356;5.310;2023-03-30T10:02:53;19.25;;;3.15;;
75932;SDS011;64803;52.356;5.310;2023-03-30T10:05:24;15.68;;;2.00;;
75932;SDS011;64803;52.356;5.310;2023-03-30T10:12:46;18.52;;;3.72;;
75932;SDS011;64803;52.356;5.310;2023-03-30T10:15:15;19.05;;;2.60;;
75932;SDS011;64803;52.356;5.310;2023-03-30T10:17:44;24.20;;;2.67;;
75932;SDS011;64803;52.356;5.310;2023-03-30T10:20:59;27.08;;;4.32;;
75932;SDS011;64803;52.356;5.310;2023-03-30T10:23:04;18.33;;;3.08;;
75932;SDS011;64803;52.356;5.310;2023-03-30T10:25:39;16.17;;;2.92;;
75932;SDS011;64803;52.356;5.310;2023-03-30T10:28:14;19.65;;;3.83;;
75932;SDS011;64803;52.356;5.310;2023-03-30T10:30:50;20.73;;;3.80;;
75932;SDS011;64803;52.356;5.310;2023-03-30T10:33:20;19.27;;;2.97;;
75932;SDS011;64803;52.356;5.310;2023-03-30T10:35:46;13.68;;;3.13;;
75932;SDS011;64803;52.356;5.310;2023-03-30T10:38:16;17.23;;;3.53;;
75932;SDS011;64803;52.356;5.310;2023-03-30T10:40:43;22.77;;;3.28;;
75932;SDS011;64803;52.356;5.310;2023-03-30T10:43:19;15.65;;;3.10;;
75932;SDS011;64803;52.356;5.310;2023-03-30T10:45:53;22.75;;;3.45;;
75932;SDS011;64803;52.356;5.310;2023-03-30T10:48:29;14.93;;;2.15;;
75932;SDS011;64803;52.356;5.310;2023-03-30T10:51:09;21.55;;;2.50;;
75932;SDS011;64803;52.356;5.310;2023-03-30T11:04:30;19.83;;;2.90;;
75932;SDS011;64803;52.356;5.310;2023-03-30T11:07:02;16.33;;;2.83;;
75932;SDS011;64803;52.356;5.310;2023-03-30T11:09:33;20.08;;;3.47;;
75932;SDS011;64803;52.356;5.310;2023-03-30T11:12:05;23.13;;;3.08;;
75932;SDS011;64803;52.356;5.310;2023-03-30T11:17:24;24.77;;;3.58;;
75932;SDS011;64803;52.356;5.310;2023-03-30T11:19:55;23.65;;;3.53;;
75932;SDS011;64803;52.356;5.310;2023-03-30T11:22:40;24.23;;;3.53;;
75932;SDS011;64803;52.356;5.310;2023-03-30T11:25:16;15.75;;;3.38;;
75932;SDS011;64803;52.356;5.310;2023-03-30T11:27:56;23.50;;;3.40;;
75932;SDS011;64803;52.356;5.310;2023-03-30T11:30:30;19.23;;;3.08;;
75932;SDS011;64803;52.356;5.310;2023-03-30T11:33:22;22.33;;;3.25;;
75932;SDS011;64803;52.356;5.310;2023-03-30T11:35:59;13.77;;;2.88;;
75932;SDS011;64803;52.356;5.310;2023-03-30T11:38:43;11.88;;;2.20;;
75932;SDS011;64803;52.356;5.310;2023-03-30T11:41:15;16.63;;;2.63;;
75932;SDS011;64803;52.356;5.310;2023-03-30T11:43:48;18.58;;;2.58;;
75932;SDS011;64803;52.356;5.310;2023-03-30T11:46:17;22.67;;;4.00;;
75932;SDS011;64803;52.356;5.310;2023-03-30T11:49:04;28.38;;;3.90;;
75932;SDS011;64803;52.356;5.310;2023-03-30T11:51:49;17.05;;;2.75;;
75932;SDS011;64803;52.356;5.310;2023-03-30T11:57:32;21.90;;;3.28;;
75932;SDS011;64803;52.356;5.310;2023-03-30T12:05:39;19.00;;;3.30;;
75932;SDS011;64803;52.356;5.310;2023-03-30T12:14:18;22.02;;;4.07;;
75932;SDS011;64803;52.356;5.310;2023-03-30T12:17:17;22.45;;;2.95;;
75932;SDS011;64803;52.356;5.310;2023-03-30T12:22:36;15.35;;;2.35;;
75932;SDS011;64803;52.356;5.310;2023-03-30T12:25:23;16.95;;;3.17;;
75932;SDS011;64803;52.356;5.310;2023-03-30T12:28:12;24.02;;;3.25;;
75932;SDS011;64803;52.356;5.310;2023-03-30T12:31:01;22.88;;;3.25;;
75932;SDS011;64803;52.356;5.310;2023-03-30T12:33:33;17.98;;;3.40;;
75932;SDS011;64803;52.356;5.310;2023-03-30T12:38:37;17.55;;;3.13;;
75932;SDS011;64803;52.356;5.310;2023-03-30T12:41:12;23.70;;;3.83;;
75932;SDS011;64803;52.356;5.310;2023-03-30T12:43:44;26.52;;;4.13;;
75932;SDS011;64803;52.356;5.310;2023-03-30T12:46:34;29.08;;;4.20;;
75932;SDS011;64803;52.356;5.310;2023-03-30T12:52:03;20.92;;;3.33;;
75932;SDS011;64803;52.356;5.310;2023-03-30T12:54:39;24.10;;;4.00;;
75932;SDS011;64803;52.356;5.310;2023-03-30T12:57:30;21.83;;;3.72;;
75932;SDS011;64803;52.356;5.310;2023-03-30T13:05:39;23.77;;;3.08;;
75932;SDS011;64803;52.356;5.310;2023-03-30T13:08:09;33.00;;;4.72;;
75932;SDS011;64803;52.356;5.310;2023-03-30T13:10:45;18.98;;;3.38;;
75932;SDS011;64803;52.356;5.310;2023-03-30T13:13:16;19.23;;;3.90;;
75932;SDS011;64803;52.356;5.310;2023-03-30T13:15:48;21.58;;;3.55;;
75932;SDS011;64803;52.356;5.310;2023-03-30T13:25:39;25.45;;;4.95;;
75932;SDS011;64803;52.356;5.310;2023-03-30T13:29:11;19.98;;;3.45;;
75932;SDS011;64803;52.356;5.310;2023-03-30T13:36:41;19.55;;;2.50;;
75932;SDS011;64803;52.356;5.310;2023-03-30T13:39:21;29.40;;;3.97;;
75932;SDS011;64803;52.356;5.310;2023-03-30T13:42:07;22.73;;;4.07;;
75932;SDS011;64803;52.356;5.310;2023-03-30T13:44:54;32.70;;;4.20;;
75932;SDS011;64803;52.356;5.310;2023-03-30T13:50:00;19.25;;;4.00;;
75932;SDS011;64803;52.356;5.310;2023-03-30T13:54:58;27.35;;;4.65;;
75932;SDS011;64803;52.356;5.310;2023-03-30T13:57:33;32.72;;;4.22;;
75932;SDS011;64803;52.356;5.310;2023-03-30T14:02:58;21.83;;;2.95;;
75932;SDS011;64803;52.356;5.310;2023-03-30T14:05:40;27.70;;;4.28;;
75932;SDS011;64803;52.356;5.310;2023-03-30T14:08:07;26.65;;;3.42;;
75932;SDS011;64803;52.356;5.310;2023-03-30T14:10:35;17.73;;;3.53;;
75932;SDS011;64803;52.356;5.310;2023-03-30T14:13:01;32.97;;;4.68;;
75932;SDS011;64803;52.356;5.310;2023-03-30T14:15:31;22.20;;;3.10;;
75932;SDS011;64803;52.356;5.310;2023-03-30T14:18:00;22.63;;;3.03;;
75932;SDS011;64803;52.356;5.310;2023-03-30T14:23:29;23.13;;;3.00;;
75932;SDS011;64803;52.356;5.310;2023-03-30T14:26:00;26.92;;;4.00;;
75932;SDS011;64803;52.356;5.310;2023-03-30T14:28:28;30.02;;;3.72;;
75932;SDS011;64803;52.356;5.310;2023-03-30T14:30:59;23.63;;;3.40;;
75932;SDS011;64803;52.356;5.310;2023-03-30T14:33:29;22.13;;;3.70;;
75932;SDS011;64803;52.356;5.310;2023-03-30T14:35:58;11.88;;;2.20;;
75932;SDS011;64803;52.356;5.310;2023-03-30T14:38:33;25.15;;;4.13;;
75932;SDS011;64803;52.356;5.310;2023-03-30T14:41:05;24.23;;;3.65;;
75932;SDS011;64803;52.356;5.310;2023-03-30T14:43:39;23.42;;;3.38;;
75932;SDS011;64803;52.356;5.310;2023-03-30T14:46:07;25.52;;;3.55;;
75932;SDS011;64803;52.356;5.310;2023-03-30T14:48:40;23.58;;;3.08;;
75932;SDS011;64803;52.356;5.310;2023-03-30T14:51:21;21.40;;;3.70;;
75932;SDS011;64803;52.356;5.310;2023-03-30T14:53:50;19.42;;;3.75;;
75932;SDS011;64803;52.356;5.310;2023-03-30T14:56:17;29.08;;;3.60;;
75932;SDS011;64803;52.356;5.310;2023-03-30T14:58:45;16.00;;;2.75;;
75932;SDS011;64803;52.356;5.310;2023-03-30T15:01:15;18.15;;;2.97;;
75932;SDS011;64803;52.356;5.310;2023-03-30T15:03:45;21.83;;;3.30;;
75932;SDS011;64803;52.356;5.310;2023-03-30T15:06:21;27.63;;;4.22;;
75932;SDS011;64803;52.356;5.310;2023-03-30T15:08:49;23.98;;;3.85;;
75932;SDS011;64803;52.356;5.310;2023-03-30T15:11:18;21.50;;;3.30;;
75932;SDS011;64803;52.356;5.310;2023-03-30T15:13:51;22.35;;;4.18;;
75932;SDS011;64803;52.356;5.310;2023-03-30T15:16:19;17.40;;;3.63;;
75932;SDS011;64803;52.356;5.310;2023-03-30T15:18:49;13.52;;;2.28;;
75932;SDS011;64803;52.356;5.310;2023-03-30T15:21:17;23.90;;;3.20;;
75932;SDS011;64803;52.356;5.310;2023-03-30T15:23:44;14.95;;;2.50;;
75932;SDS011;64803;52.356;5.310;2023-03-30T15:26:12;18.05;;;2.88;;
75932;SDS011;64803;52.356;5.310;2023-03-30T15:28:50;20.45;;;2.95;;
75932;SDS011;64803;52.356;5.310;2023-03-30T15:31:18;25.13;;;3.38;;
75932;SDS011;64803;52.356;5.310;2023-03-30T15:33:45;20.13;;;3.80;;
75932;SDS011;64803;52.356;5.310;2023-03-30T15:36:19;20.77;;;3.20;;
75932;SDS011;64803;52.356;5.310;2023-03-30T15:38:51;27.50;;;3.58;;
75932;SDS011;64803;52.356;5.310;2023-03-30T15:41:23;24.15;;;3.72;;
75932;SDS011;64803;52.356;5.310;2023-03-30T15:44:33;27.90;;;3.70;;
75932;SDS011;64803;52.356;5.310;2023-03-30T15:47:05;19.30;;;3.53;;
75932;SDS011;64803;52.356;5.310;2023-03-30T15:49:48;21.00;;;3.42;;
75932;SDS011;64803;52.356;5.310;2023-03-30T15:52:17;20.63;;;3.03;;
75932;SDS011;64803;52.356;5.310;2023-03-30T15:54:53;19.02;;;2.45;;
75932;SDS011;64803;52.356;5.310;2023-03-30T15:57:21;21.90;;;3.53;;
75932;SDS011;64803;52.356;5.310;2023-03-30T15:59:52;22.88;;;3.28;;
75932;SDS011;64803;52.356;5.310;2023-03-30T16:02:39;24.77;;;3.22;;
75932;SDS011;64803;52.356;5.310;2023-03-30T16:05:15;20.70;;;3.40;;
75932;SDS011;64803;52.356;5.310;2023-03-30T16:10:13;18.52;;;3.22;;
75932;SDS011;64803;52.356;5.310;2023-03-30T16:12:41;15.07;;;2.65;;
75932;SDS011;64803;52.356;5.310;2023-03-30T16:15:16;18.00;;;3.55;;
75932;SDS011;64803;52.356;5.310;2023-03-30T16:17:44;19.20;;;2.83;;
75932;SDS011;64803;52.356;5.310;2023-03-30T16:22:50;19.30;;;2.80;;
75932;SDS011;64803;52.356;5.310;2023-03-30T16:25:17;20.92;;;3.20;;
75932;SDS011;64803;52.356;5.310;2023-03-30T16:27:45;27.17;;;3.85;;
75932;SDS011;64803;52.356;5.310;2023-03-30T16:32:49;18.92;;;2.88;;
75932;SDS011;64803;52.356;5.310;2023-03-30T16:35:15;22.98;;;3.45;;
75932;SDS011;64803;52.356;5.310;2023-03-30T16:37:41;23.73;;;2.67;;
75932;SDS011;64803;52.356;5.310;2023-03-30T16:42:51;18.10;;;3.10;;
75932;SDS011;64803;52.356;5.310;2023-03-30T16:45:17;23.38;;;3.15;;
75932;SDS011;64803;52.356;5.310;2023-03-30T16:47:43;14.65;;;2.60;;
75932;SDS011;64803;52.356;5.310;2023-03-30T16:52:42;17.58;;;3.10;;
75932;SDS011;64803;52.356;5.310;2023-03-30T16:55:08;17.30;;;2.78;;
75932;SDS011;64803;52.356;5.310;2023-03-30T16:57:35;15.57;;;2.85;;
75932;SDS011;64803;52.356;5.310;2023-03-30T17:00:01;19.90;;;3.17;;
75932;SDS011;64803;52.356;5.310;2023-03-30T17:02:27;23.42;;;4.07;;
75932;SDS011;64803;52.356;5.310;2023-03-30T17:04:53;18.48;;;2.92;;
75932;SDS011;64803;52.356;5.310;2023-03-30T17:07:19;14.43;;;2.53;;
75932;SDS011;64803;52.356;5.310;2023-03-30T17:09:45;22.08;;;3.50;;
75932;SDS011;64803;52.356;5.310;2023-03-30T17:12:11;13.07;;;1.85;;
75932;SDS011;64803;52.356;5.310;2023-03-30T17:14:37;15.43;;;2.72;;
75932;SDS011;64803;52.356;5.310;2023-03-30T17:17:05;15.38;;;2.50;;
75932;SDS011;64803;52.356;5.310;2023-03-30T17:19:31;10.10;;;2.10;;
75932;SDS011;64803;52.356;5.310;2023-03-30T17:21:57;12.73;;;3.47;;
75932;SDS011;64803;52.356;5.310;2023-03-30T17:24:23;16.38;;;2.38;;
75932;SDS011;64803;52.356;5.310;2023-03-30T17:26:50;14.52;;;2.03;;
75932;SDS011;64803;52.356;5.310;2023-03-30T17:29:15;13.77;;;2.28;;
75932;SDS011;64803;52.356;5.310;2023-03-30T17:31:41;16.98;;;2.17;;
75932;SDS011;64803;52.356;5.310;2023-03-30T17:34:10;17.38;;;2.60;;
75932;SDS011;64803;52.356;5.310;2023-03-30T17:36:36;18.17;;;2.38;;
75932;SDS011;64803;52.356;5.310;2023-03-30T17:39:02;13.43;;;2.28;;
75932;SDS011;64803;52.356;5.310;2023-03-30T17:41:31;21.17;;;2.47;;
75932;SDS011;64803;52.356;5.310;2023-03-30T17:43:58;19.45;;;2.65;;
75932;SDS011;64803;52.356;5.310;2023-03-30T17:46:24;18.60;;;2.22;;
75932;SDS011;64803;52.356;5.310;2023-03-30T17:48:50;16.60;;;2.70;;
75932;SDS011;64803;52.356;5.310;2023-03-30T17:51:16;11.32;;;1.73;;
75932;SDS011;64803;52.356;5.310;2023-03-30T17:53:42;20.02;;;2.55;;
75932;SDS011;64803;52.356;5.310;2023-03-30T17:56:11;19.52;;;2.45;;
75932;SDS011;64803;52.356;5.310;2023-03-30T17:58:38;16.15;;;2.28;;
75932;SDS011;64803;52.356;5.310;2023-03-30T18:01:07;14.18;;;2.35;;
75932;SDS011;64803;52.356;5.310;2023-03-30T18:03:34;19.10;;;2.92;;
75932;SDS011;64803;52.356;5.310;2023-03-30T18:06:02;19.58;;;2.58;;
75932;SDS011;64803;52.356;5.310;2023-03-30T18:08:29;19.35;;;2.30;;